Time;durP1;ratioP1;P1;durP2;ratioP2;P2;SDS_P1;SDS_P2;PMS_P1;PMS_P2;Temp;Humidity;BMP_temperature;BMP_pressure;BME280_temperature;BME280_humidity;BME280_pressure;Samples;Min_cycle;Max_cycle;Signal;HPM_P1;HPM_P2
2022/11/05 00:11:03;;;;;;;7.65;3.90;;;9.30;86.60;;;;;;4898321;29;20116;-79
2022/11/05 00:19:08;;;;;;;7.35;3.10;;;9.40;86.40;;;;;;4897784;29;20056;-78
2022/11/05 00:27:07;;;;;;;4.28;2.17;;;9.50;86.10;;;;;;4898223;29;20052;-79
2022/11/05 00:29:33;;;;;;;3.75;1.80;;;9.50;86.10;;;;;;4880848;29;20043;-79
2022/11/05 00:31:59;;;;;;;2.80;1.80;;;9.50;86.10;;;;;;4881018;29;20128;-79
2022/11/05 00:34:25;;;;;;;3.53;1.77;;;9.50;86.10;;;;;;4880920;29;20032;-79
2022/11/05 00:36:50;;;;;;;2.97;1.63;;;9.40;86.20;;;;;;4880800;29;20412;-79
2022/11/05 00:39:16;;;;;;;4.72;1.92;;;9.40;86.30;;;;;;4897623;29;20135;-79
2022/11/05 00:41:42;;;;;;;5.40;1.70;;;9.40;86.30;;;;;;4880672;29;20033;-79
2022/11/05 00:49:28;;;;;;;2.15;1.63;;;9.30;86.60;;;;;;4897768;29;20461;-78
2022/11/05 00:49:39;;;;;;;3.95;1.83;;;9.30;86.70;;;;;;4897688;29;20467;-79
2022/11/05 00:54:50;;;;;;;3.42;2.10;;;9.20;86.90;;;;;;4897539;29;20044;-81
2022/11/05 00:57:15;;;;;;;4.07;2.33;;;9.10;87.00;;;;;;4879868;29;20032;-79
2022/11/05 00:59:41;;;;;;;5.32;2.47;;;9.20;87.10;;;;;;4880331;29;20025;-80
2022/11/05 01:02:07;;;;;;;3.58;2.10;;;9.10;87.10;;;;;;4897616;29;20028;-78
2022/11/05 01:04:32;;;;;;;3.47;2.13;;;9.10;87.20;;;;;;4880374;29;20032;-79
2022/11/05 01:06:58;;;;;;;2.85;2.20;;;9.10;87.30;;;;;;4880139;29;20100;-78
2022/11/05 01:09:23;;;;;;;3.63;2.13;;;9.10;87.30;;;;;;4897080;29;20567;-77
2022/11/05 01:11:50;;;;;;;4.28;2.28;;;9.10;87.30;;;;;;4897131;29;20077;-78
2022/11/05 01:14:17;;;;;;;4.30;2.60;;;9.00;87.20;;;;;;4897259;29;20035;-78
2022/11/05 01:16:44;;;;;;;4.50;2.17;;;9.00;87.30;;;;;;4880441;29;20389;-78
2022/11/05 01:19:11;;;;;;;4.68;2.20;;;8.90;87.40;;;;;;4880071;29;20485;-79
2022/11/05 01:21:36;;;;;;;3.40;2.13;;;8.80;87.40;;;;;;4897257;29;20441;-79
2022/11/05 01:24:02;;;;;;;4.68;2.50;;;8.80;87.50;;;;;;4897171;29;20036;-78
2022/11/05 01:26:28;;;;;;;4.30;2.33;;;8.80;87.60;;;;;;4880411;29;20037;-79
2022/11/05 01:28:59;;;;;;;6.35;2.70;;;8.70;87.70;;;;;;4896999;29;20043;-79
2022/11/05 01:31:24;;;;;;;3.78;2.63;;;8.70;87.80;;;;;;4880216;29;20140;-79
2022/11/05 01:33:50;;;;;;;4.97;2.50;;;8.60;87.80;;;;;;4880150;29;20036;-78
2022/11/05 01:36:16;;;;;;;4.13;2.38;;;8.60;87.90;;;;;;4880153;29;20064;-79
2022/11/05 01:38:42;;;;;;;6.05;3.17;;;8.50;88.00;;;;;;4880150;29;20036;-78
2022/11/05 01:41:08;;;;;;;5.13;2.45;;;8.50;88.00;;;;;;4880082;29;20025;-79
2022/11/05 01:43:53;;;;;;;2.95;2.40;;;8.50;88.00;;;;;;4880140;29;20400;-77
2022/11/05 01:46:38;;;;;;;5.30;2.42;;;8.40;88.00;;;;;;4879868;29;20021;-79
2022/11/05 01:49:20;;;;;;;3.58;2.67;;;8.40;88.00;;;;;;4895816;29;20040;-79
2022/11/05 01:51:47;;;;;;;4.63;2.78;;;8.40;88.10;;;;;;4877293;29;20072;-79
2022/11/05 01:54:17;;;;;;;6.28;3.30;;;8.40;88.10;;;;;;4896624;29;20032;-78
2022/11/05 01:56:49;;;;;;;3.83;2.97;;;8.40;88.80;;;;;;4896554;29;20036;-79
2022/11/05 01:59:30;;;;;;;6.10;3.45;;;8.40;88.20;;;;;;4877293;29;20405;-78
2022/11/05 02:01:56;;;;;;;4.40;2.85;;;8.40;88.20;;;;;;4894497;29;20735;-79
2022/11/05 02:04:35;;;;;;;4.75;2.90;;;8.40;88.10;;;;;;4877098;29;20032;-79
2022/11/05 02:07:02;;;;;;;4.28;2.85;;;8.40;88.20;;;;;;4879636;29;20033;-78
2022/11/05 02:09:50;;;;;;;4.95;2.90;;;8.40;88.20;;;;;;4898749;29;20508;-79
2022/11/05 02:12:17;;;;;;;4.43;3.03;;;8.40;88.30;;;;;;4883589;29;20096;-78
2022/11/05 02:14:42;;;;;;;4.35;2.92;;;8.40;88.30;;;;;;4881027;29;20078;-79
2022/11/05 02:17:23;;;;;;;2.88;2.58;;;8.30;88.20;;;;;;4900086;29;20068;-78
2022/11/05 02:19:57;;;;;;;3.40;2.58;;;8.30;88.30;;;;;;4882997;29;20047;-80
2022/11/05 02:22:42;;;;;;;4.75;2.70;;;8.30;88.30;;;;;;4900228;29;20115;-78
2022/11/05 02:25:26;;;;;;;6.72;2.90;;;8.30;88.30;;;;;;4882998;29;20502;-78
2022/11/05 02:28:15;;;;;;;5.47;3.08;;;8.30;88.30;;;;;;4897167;29;20036;-79
2022/11/05 02:30:41;;;;;;;5.70;3.20;;;8.20;88.30;;;;;;4900050;29;20048;-78
2022/11/05 02:33:28;;;;;;;6.18;3.20;;;8.20;88.30;;;;;;4882914;29;20033;-78
2022/11/05 02:36:32;;;;;;;3.90;2.80;;;8.20;88.30;;;;;;4882945;29;20025;-78
2022/11/05 02:39:37;;;;;;;5.50;3.00;;;8.20;88.40;;;;;;4843015;29;20560;-80
2022/11/05 02:42:29;;;;;;;4.90;3.03;;;8.20;88.40;;;;;;4900186;29;20033;-79
2022/11/05 02:45:09;;;;;;;3.50;2.80;;;8.20;88.40;;;;;;4899789;29;20059;-77
2022/11/05 02:47:44;;;;;;;5.78;3.20;;;8.10;88.30;;;;;;4899748;29;20471;-78
2022/11/05 02:50:20;;;;;;;4.38;3.00;;;8.10;88.40;;;;;;4882843;29;20147;-79
2022/11/05 02:53:22;;;;;;;6.20;3.40;;;8.10;88.50;;;;;;4899586;29;20079;-78
2022/11/05 02:55:58;;;;;;;6.28;3.20;;;8.10;88.50;;;;;;4882522;29;20047;-79
2022/11/05 02:58:27;;;;;;;7.00;3.33;;;8.10;88.50;;;;;;4899482;29;20033;-79
2022/11/05 03:01:00;;;;;;;6.03;3.60;;;8.10;88.50;;;;;;4899503;29;20036;-78
2022/11/05 03:03:37;;;;;;;4.03;3.10;;;8.00;88.40;;;;;;4882674;29;20029;-79
2022/11/05 03:06:20;;;;;;;4.50;3.08;;;8.00;88.50;;;;;;4899358;29;20032;-79
2022/11/05 03:08:48;;;;;;;5.80;3.58;;;8.00;88.60;;;;;;4882430;29;20048;-79
2022/11/05 03:11:18;;;;;;;5.18;3.40;;;7.90;88.50;;;;;;4899259;29;20104;-78
2022/11/05 03:13:51;;;;;;;5.53;3.17;;;7.90;88.60;;;;;;4879829;29;20043;-78
2022/11/05 03:16:28;;;;;;;3.88;3.40;;;7.90;88.60;;;;;;4898965;29;20540;-78
2022/11/05 03:19:06;;;;;;;3.78;3.05;;;8.00;88.70;;;;;;4881845;29;20044;-78
2022/11/05 03:21:41;;;;;;;3.65;3.00;;;8.00;88.70;;;;;;4899420;29;20515;-79
2022/11/05 03:24:19;;;;;;;5.45;2.97;;;8.00;88.80;;;;;;4899333;29;20386;-79
2022/11/05 03:27:11;;;;;;;6.30;2.80;;;8.00;88.80;;;;;;4882038;29;20035;-78
2022/11/05 03:29:45;;;;;;;5.50;3.25;;;8.00;88.70;;;;;;4882174;29;20040;-79
2022/11/05 03:32:14;;;;;;;5.07;2.72;;;7.90;88.70;;;;;;4899047;29;20118;-79
2022/11/05 03:34:51;;;;;;;4.47;3.03;;;8.00;88.70;;;;;;4898915;29;20084;-78
2022/11/05 03:37:20;;;;;;;3.22;2.92;;;8.00;88.80;;;;;;4898926;29;20119;-78
2022/11/05 03:39:52;;;;;;;5.07;3.10;;;7.90;88.70;;;;;;4898773;29;20116;-78
2022/11/05 03:42:26;;;;;;;5.18;3.22;;;7.90;88.70;;;;;;4891080;29;20040;-79
2022/11/05 03:45:29;;;;;;;5.75;2.83;;;7.90;88.70;;;;;;4865653;29;20040;-80
2022/11/05 03:48:15;;;;;;;4.65;2.80;;;7.90;88.80;;;;;;4880981;29;20056;-78
2022/11/05 03:50:59;;;;;;;3.30;2.85;;;7.90;88.80;;;;;;4878353;29;20045;-78
2022/11/05 03:53:42;;;;;;;4.70;2.80;;;7.90;88.80;;;;;;4898933;29;20559;-78
2022/11/05 03:56:28;;;;;;;3.70;2.93;;;7.90;88.90;;;;;;4879044;29;20506;-77
2022/11/05 03:58:59;;;;;;;4.55;2.60;;;7.90;88.80;;;;;;4858428;29;20090;-78
2022/11/05 04:01:29;;;;;;;4.53;2.58;;;7.80;88.80;;;;;;4857049;29;20045;-79
2022/11/05 04:04:00;;;;;;;4.45;2.75;;;7.80;88.80;;;;;;4840755;29;20070;-78
2022/11/05 04:14:48;;;;;;;2.92;2.40;;;7.80;88.90;;;;;;4821990;29;20579;-78
2022/11/05 04:17:29;;;;;;;4.80;2.53;;;7.80;89.50;;;;;;4821709;29;20070;-79
2022/11/05 04:25:23;;;;;;;6.25;2.70;;;7.80;88.90;;;;;;4822171;29;20076;-78
2022/11/05 04:27:49;;;;;;;2.47;2.15;;;7.70;88.90;;;;;;4821801;29;20068;-78
2022/11/05 04:30:20;;;;;;;5.97;2.50;;;7.70;88.90;;;;;;4844968;29;20474;-78
2022/11/05 04:32:59;;;;;;;3.88;2.90;;;7.70;88.90;;;;;;4857367;29;20105;-79
2022/11/05 04:35:30;;;;;;;3.95;2.60;;;7.70;88.90;;;;;;4858021;29;20072;-79
2022/11/05 04:37:56;;;;;;;5.35;2.72;;;7.70;89.00;;;;;;4875738;29;20419;-79
2022/11/05 04:40:22;;;;;;;4.25;2.75;;;7.70;89.00;;;;;;4880805;29;20028;-79
2022/11/05 04:42:47;;;;;;;3.35;2.30;;;7.70;89.00;;;;;;4880751;29;20029;-79
2022/11/05 04:45:13;;;;;;;3.72;2.85;;;7.70;89.10;;;;;;4897826;29;20028;-78
2022/11/05 04:47:40;;;;;;;5.25;2.88;;;7.70;89.00;;;;;;4897526;29;20035;-79
2022/11/05 04:50:05;;;;;;;4.38;2.50;;;7.70;89.10;;;;;;4880550;29;20052;-78
2022/11/05 04:52:31;;;;;;;4.45;2.53;;;7.70;89.10;;;;;;4897349;29;20564;-78
2022/11/05 04:54:56;;;;;;;6.07;2.70;;;7.60;89.00;;;;;;4897403;29;20025;-78
2022/11/05 04:57:22;;;;;;;3.10;2.42;;;7.60;89.00;;;;;;4880589;29;20488;-78
2022/11/05 04:59:48;;;;;;;6.10;2.72;;;7.60;89.00;;;;;;4880394;29;20035;-77
2022/11/05 05:02:15;;;;;;;3.60;2.90;;;7.60;89.10;;;;;;4897140;29;20108;-78
2022/11/05 05:04:41;;;;;;;3.85;2.45;;;7.60;89.10;;;;;;4880535;29;20031;-79
2022/11/05 05:07:06;;;;;;;6.55;2.83;;;7.60;89.20;;;;;;4897318;29;20548;-79
2022/11/05 05:09:34;;;;;;;3.80;2.33;;;7.60;89.10;;;;;;4897304;29;20406;-77
2022/11/05 05:12:01;;;;;;;4.93;2.65;;;7.50;89.10;;;;;;4897205;29;20037;-78
2022/11/05 05:14:27;;;;;;;4.07;2.88;;;7.50;89.10;;;;;;4897370;29;20489;-79
2022/11/05 05:16:53;;;;;;;5.82;3.10;;;7.50;89.20;;;;;;4880198;29;20028;-78
2022/11/05 05:19:18;;;;;;;4.88;3.00;;;7.50;89.20;;;;;;4880371;29;20127;-79
2022/11/05 05:21:44;;;;;;;4.97;3.00;;;7.50;89.20;;;;;;4880241;29;20396;-79
2022/11/05 05:24:12;;;;;;;6.43;3.03;;;7.50;89.20;;;;;;4893936;29;20039;-79
2022/11/05 05:26:43;;;;;;;4.10;3.20;;;7.50;89.20;;;;;;4893828;29;20037;-78
2022/11/05 05:29:10;;;;;;;6.45;3.13;;;7.50;89.20;;;;;;4896718;29;20551;-78
2022/11/05 05:31:36;;;;;;;4.40;3.17;;;7.50;89.20;;;;;;4896500;29;20096;-77
2022/11/05 05:34:03;;;;;;;4.40;3.00;;;7.50;89.20;;;;;;4897078;29;20501;-78
2022/11/05 05:36:29;;;;;;;4.45;3.22;;;7.50;89.70;;;;;;4879729;29;20033;-78
2022/11/05 05:38:55;;;;;;;5.05;3.80;;;7.50;89.10;;;;;;4877205;29;20410;-79
2022/11/05 05:41:21;;;;;;;4.90;3.35;;;7.50;89.10;;;;;;4877274;29;20184;-78
2022/11/05 05:43:46;;;;;;;4.47;3.20;;;7.40;89.10;;;;;;4879599;29;20032;-79
2022/11/05 05:46:14;;;;;;;6.68;3.30;;;7.40;89.10;;;;;;4879705;29;20028;-78
2022/11/05 05:48:41;;;;;;;4.57;3.42;;;7.40;89.10;;;;;;4896648;29;20342;-79
2022/11/05 05:51:11;;;;;;;5.30;3.85;;;7.40;89.10;;;;;;4893870;29;20128;-79
2022/11/05 05:53:37;;;;;;;5.45;3.53;;;7.40;89.20;;;;;;4893633;29;20394;-78
2022/11/05 05:56:03;;;;;;;6.53;3.72;;;7.40;89.20;;;;;;4879422;29;20512;-77
2022/11/05 05:58:34;;;;;;;9.57;3.90;;;7.40;89.10;;;;;;4896504;29;20040;-78
2022/11/05 06:01:02;;;;;;;3.85;3.42;;;7.40;89.20;;;;;;4879880;29;20037;-78
2022/11/05 06:03:28;;;;;;;4.93;3.80;;;7.40;89.10;;;;;;4896583;29;20028;-78
2022/11/05 06:05:59;;;;;;;5.53;3.80;;;7.30;89.10;;;;;;4879473;29;20108;-78
2022/11/05 06:08:25;;;;;;;5.05;3.53;;;7.30;89.20;;;;;;4879593;29;20136;-79
2022/11/05 06:10:50;;;;;;;7.47;4.10;;;7.30;89.10;;;;;;4879513;29;20115;-78
2022/11/05 06:13:16;;;;;;;7.97;3.80;;;7.30;89.10;;;;;;4879681;29;20020;-78
2022/11/05 06:15:43;;;;;;;5.53;4.10;;;7.30;89.10;;;;;;4896661;29;20108;-78
2022/11/05 06:18:08;;;;;;;5.28;3.88;;;7.30;89.10;;;;;;4896304;29;20557;-78
2022/11/05 06:20:34;;;;;;;7.30;4.07;;;7.30;89.80;;;;;;4893656;29;20032;-78
2022/11/05 06:23:00;;;;;;;6.82;4.35;;;7.30;89.20;;;;;;4896471;29;20024;-77
2022/11/05 06:25:25;;;;;;;6.63;3.92;;;7.30;89.20;;;;;;4876704;29;20091;-79
2022/11/05 06:27:54;;;;;;;6.85;4.25;;;7.30;89.20;;;;;;4893832;29;20116;-79
2022/11/05 06:30:20;;;;;;;10.02;4.57;;;7.30;89.20;;;;;;4879899;29;20055;-79
2022/11/05 06:32:46;;;;;;;7.80;4.10;;;7.30;89.30;;;;;;4879482;29;20016;-78
2022/11/05 06:35:14;;;;;;;5.40;3.92;;;7.30;89.30;;;;;;4893360;29;20041;-78
2022/11/05 06:37:39;;;;;;;7.68;3.80;;;7.30;89.30;;;;;;4879744;29;20048;-78
2022/11/05 06:40:06;;;;;;;6.97;4.10;;;7.30;89.30;;;;;;4879479;29;20032;-78
2022/11/05 06:42:31;;;;;;;5.57;3.70;;;7.30;89.30;;;;;;4879275;29;20434;-78
2022/11/05 06:44:58;;;;;;;6.57;4.22;;;7.30;89.80;;;;;;4896175;29;20028;-78
2022/11/05 06:47:23;;;;;;;4.60;3.58;;;7.30;89.20;;;;;;4896113;29;20112;-79
2022/11/05 06:49:49;;;;;;;5.57;4.00;;;7.30;89.20;;;;;;4879669;29;20169;-78
2022/11/05 06:52:15;;;;;;;5.18;4.00;;;7.30;89.20;;;;;;4879267;29;20088;-79
2022/11/05 06:54:42;;;;;;;8.52;4.20;;;7.30;89.20;;;;;;4894005;29;20036;-78
2022/11/05 06:57:09;;;;;;;6.07;4.00;;;7.30;89.20;;;;;;4882900;29;20041;-78
2022/11/05 06:59:38;;;;;;;5.53;4.25;;;7.30;89.20;;;;;;4899609;29;20056;-78
2022/11/05 07:02:05;;;;;;;6.50;4.28;;;7.30;89.20;;;;;;4899459;29;20051;-78
2022/11/05 07:04:31;;;;;;;8.00;4.72;;;7.30;89.20;;;;;;4899389;29;20025;-79
2022/11/05 07:07:00;;;;;;;6.07;3.92;;;7.20;89.10;;;;;;4899417;29;20124;-79
2022/11/05 07:09:27;;;;;;;6.05;4.28;;;7.30;89.20;;;;;;4882635;29;20119;-77
2022/11/05 07:11:55;;;;;;;9.85;4.35;;;7.30;89.20;;;;;;4899216;29;20028;-79
2022/11/05 07:14:21;;;;;;;5.47;4.32;;;7.20;89.10;;;;;;4882546;29;20404;-79
2022/11/05 07:16:47;;;;;;;8.25;4.50;;;7.30;89.20;;;;;;4879713;29;20035;-78
2022/11/05 07:19:12;;;;;;;8.52;4.53;;;7.30;89.10;;;;;;4882577;29;20033;-79
2022/11/05 07:21:38;;;;;;;7.78;4.63;;;7.30;89.10;;;;;;4882229;29;20120;-78
2022/11/05 07:24:04;;;;;;;5.22;4.60;;;7.30;89.10;;;;;;4882333;29;20464;-78
2022/11/05 07:26:31;;;;;;;6.25;4.60;;;7.30;89.10;;;;;;4899337;29;20112;-78
2022/11/05 07:29:00;;;;;;;10.05;5.47;;;7.30;89.10;;;;;;4882174;29;20031;-78
2022/11/05 07:31:27;;;;;;;6.20;4.72;;;7.30;89.00;;;;;;4882364;29;20453;-78
2022/11/05 07:33:52;;;;;;;7.18;4.90;;;7.30;89.00;;;;;;4882029;29;20135;-77
2022/11/05 07:36:18;;;;;;;9.45;5.30;;;7.40;89.10;;;;;;4882200;29;20186;-78
2022/11/05 07:38:43;;;;;;;6.93;4.60;;;7.40;89.70;;;;;;4882138;29;20036;-79
2022/11/05 07:41:09;;;;;;;7.95;5.05;;;7.40;89.10;;;;;;4882230;29;20061;-79
2022/11/05 07:43:34;;;;;;;5.68;5.15;;;7.40;89.00;;;;;;4898685;29;20060;-78
2022/11/05 07:46:00;;;;;;;9.20;5.22;;;7.50;89.00;;;;;;4898923;29;20272;-78
2022/11/05 07:48:25;;;;;;;12.35;5.68;;;7.50;89.00;;;;;;4881864;29;20526;-78
2022/11/05 07:50:52;;;;;;;7.47;5.07;;;7.50;88.90;;;;;;4879104;29;20041;-78
2022/11/05 07:53:19;;;;;;;8.30;5.68;;;7.60;88.90;;;;;;4898492;29;20036;-79
2022/11/05 07:55:45;;;;;;;8.07;5.68;;;7.60;88.90;;;;;;4881858;29;20450;-78
2022/11/05 07:58:14;;;;;;;7.88;5.47;;;7.60;88.80;;;;;;4898896;29;20040;-79
2022/11/05 08:00:39;;;;;;;5.93;5.28;;;7.70;88.80;;;;;;4881632;29;20025;-79
2022/11/05 08:03:11;;;;;;;7.07;5.15;;;7.70;88.80;;;;;;4881534;29;20093;-79
2022/11/05 08:05:39;;;;;;;10.23;5.20;;;7.80;88.70;;;;;;4897945;29;20504;-79
2022/11/05 08:08:07;;;;;;;9.27;5.28;;;7.80;89.30;;;;;;4881102;29;20044;-79
2022/11/05 08:10:33;;;;;;;7.53;5.80;;;7.80;88.70;;;;;;4898567;29;20062;-78
2022/11/05 08:12:59;;;;;;;8.93;5.22;;;7.80;88.60;;;;;;4881648;29;20032;-78
2022/11/05 08:15:25;;;;;;;9.48;5.93;;;7.90;88.60;;;;;;4898449;29;20060;-79
2022/11/05 08:18:06;;;;;;;8.65;5.43;;;7.90;88.50;;;;;;4881431;29;20029;-78
2022/11/05 08:20:33;;;;;;;9.68;5.40;;;7.90;88.50;;;;;;4843007;29;20072;-78
2022/11/05 08:22:59;;;;;;;8.82;5.93;;;7.90;88.40;;;;;;4841225;29;20102;-78
2022/11/05 08:25:25;;;;;;;8.55;5.88;;;8.00;88.50;;;;;;4858706;29;20708;-79
2022/11/05 08:27:59;;;;;;;8.68;6.32;;;8.00;88.30;;;;;;4858892;29;20561;-77
2022/11/05 08:30:27;;;;;;;10.25;6.40;;;8.00;88.30;;;;;;4858891;29;20049;-79
2022/11/05 08:32:58;;;;;;;8.82;5.50;;;8.00;88.30;;;;;;4843282;29;20037;-78
2022/11/05 08:35:24;;;;;;;9.85;6.28;;;8.10;88.30;;;;;;4858891;29;20489;-78
2022/11/05 08:37:54;;;;;;;9.15;5.53;;;8.10;88.20;;;;;;4856246;29;20038;-79
2022/11/05 08:40:19;;;;;;;10.15;6.32;;;8.20;88.30;;;;;;4844014;29;20041;-79
2022/11/05 08:42:45;;;;;;;8.60;5.82;;;8.20;88.20;;;;;;4845476;29;20036;-79
2022/11/05 08:45:10;;;;;;;7.53;5.75;;;8.20;88.10;;;;;;4862327;29;20065;-80
2022/11/05 08:47:36;;;;;;;8.85;5.65;;;8.30;88.10;;;;;;4846506;29;20036;-79
2022/11/05 08:50:03;;;;;;;6.88;5.28;;;8.40;88.10;;;;;;4861954;29;20033;-79
2022/11/05 08:52:28;;;;;;;8.25;5.50;;;8.40;88.00;;;;;;4881182;29;20052;-79
2022/11/05 08:54:54;;;;;;;10.32;6.20;;;8.50;88.00;;;;;;4902432;29;20080;-78
2022/11/05 08:57:19;;;;;;;9.43;6.10;;;8.50;87.90;;;;;;4885988;29;20028;-78
2022/11/05 08:59:45;;;;;;;8.55;5.68;;;8.50;87.80;;;;;;4894845;29;20037;-80
2022/11/05 09:02:10;;;;;;;9.80;5.97;;;8.60;87.80;;;;;;4902427;29;20558;-79
2022/11/05 09:04:36;;;;;;;12.50;6.05;;;8.60;87.80;;;;;;4902351;29;20032;-79
2022/11/05 09:07:02;;;;;;;8.63;5.85;;;8.70;87.80;;;;;;4902733;29;20060;-79
2022/11/05 09:09:28;;;;;;;6.95;5.22;;;8.70;87.60;;;;;;4919793;29;20024;-79
2022/11/05 09:11:53;;;;;;;9.88;5.43;;;8.80;88.20;;;;;;4902950;29;20020;-79
2022/11/05 09:14:19;;;;;;;7.35;4.88;;;8.80;87.60;;;;;;4919337;29;20017;-79
2022/11/05 09:16:45;;;;;;;7.45;4.90;;;8.90;87.50;;;;;;4895333;29;20043;-80
2022/11/05 09:19:11;;;;;;;7.20;5.20;;;9.00;87.50;;;;;;4885574;29;20037;-80
2022/11/05 09:21:36;;;;;;;7.80;5.75;;;9.00;87.40;;;;;;4884666;29;20032;-80
2022/11/05 09:24:03;;;;;;;8.65;5.00;;;9.10;87.30;;;;;;4899588;29;20028;-79
2022/11/05 09:26:28;;;;;;;8.73;5.18;;;9.10;87.20;;;;;;4883045;29;20115;-80
2022/11/05 09:28:55;;;;;;;10.43;5.47;;;9.20;87.20;;;;;;4899465;29;20521;-80
2022/11/05 09:31:21;;;;;;;6.80;4.93;;;9.20;87.10;;;;;;4899296;29;20032;-81
2022/11/05 09:33:46;;;;;;;8.90;5.43;;;9.20;87.00;;;;;;4898677;29;20176;-80
2022/11/05 09:36:12;;;;;;;7.22;5.03;;;9.30;87.00;;;;;;4881062;29;20454;-80
2022/11/05 09:38:38;;;;;;;5.80;4.60;;;9.30;86.90;;;;;;4880771;29;20119;-79
2022/11/05 09:41:27;;;;;;;6.32;4.82;;;9.40;86.90;;;;;;4880655;29;20032;-79
2022/11/05 09:44:24;;;;;;;6.70;4.78;;;9.50;86.80;;;;;;4880779;29;20480;-81
2022/11/05 09:47:00;;;;;;;9.48;4.88;;;9.50;86.70;;;;;;4885153;29;20100;-80
2022/11/05 09:49:30;;;;;;;7.32;4.88;;;9.60;86.70;;;;;;4880461;29;20080;-80
2022/11/05 09:51:57;;;;;;;6.90;4.70;;;9.60;86.60;;;;;;4897053;29;20039;-79
2022/11/05 09:54:30;;;;;;;10.15;5.20;;;9.70;86.50;;;;;;4880108;29;20084;-80
2022/11/05 09:56:56;;;;;;;9.60;5.38;;;9.80;86.40;;;;;;4880227;29;20416;-81
2022/11/05 09:59:35;;;;;;;8.10;5.18;;;9.80;86.20;;;;;;4879937;29;20040;-79
2022/11/05 10:02:46;;;;;;;9.45;5.22;;;9.80;86.10;;;;;;4879980;29;20116;-80
2022/11/05 10:05:13;;;;;;;8.27;5.07;;;9.90;86.10;;;;;;4879865;29;20052;-80
2022/11/05 10:07:52;;;;;;;7.18;4.95;;;9.90;86.00;;;;;;4880083;29;20041;-81
2022/11/05 10:10:31;;;;;;;8.93;4.35;;;9.90;85.90;;;;;;4880334;29;20077;-80
2022/11/05 10:13:03;;;;;;;7.03;4.72;;;10.00;85.90;;;;;;4880028;29;20037;-82
2022/11/05 10:15:44;;;;;;;8.45;5.05;;;10.10;85.70;;;;;;4880547;29;20071;-79
2022/11/05 10:18:24;;;;;;;7.55;4.30;;;10.10;85.50;;;;;;4894705;29;20056;-81
2022/11/05 10:20:50;;;;;;;6.03;4.15;;;10.20;85.50;;;;;;4896768;29;20036;-79
2022/11/05 10:23:18;;;;;;;4.95;3.92;;;10.30;85.40;;;;;;4896327;29;20369;-80
2022/11/05 10:25:54;;;;;;;7.22;4.43;;;10.40;85.30;;;;;;4879648;29;20021;-80
2022/11/05 10:28:25;;;;;;;8.07;4.20;;;10.50;85.20;;;;;;4880270;29;20096;-81
2022/11/05 10:30:55;;;;;;;5.07;3.90;;;10.50;85.00;;;;;;4899196;29;20081;-80
2022/11/05 10:33:30;;;;;;;5.93;3.80;;;10.60;84.90;;;;;;4883234;29;20446;-81
2022/11/05 10:36:02;;;;;;;6.28;3.80;;;10.70;84.80;;;;;;4901741;29;20032;-80
2022/11/05 10:38:28;;;;;;;5.55;4.07;;;10.80;84.40;;;;;;4899944;29;20536;-78
2022/11/05 10:41:32;;;;;;;7.10;4.57;;;10.90;84.20;;;;;;4883214;29;20100;-79
2022/11/05 10:44:05;;;;;;;;;;;11.00;84.00;;;;;;4900350;29;20351;-78
2022/11/05 10:46:43;;;;;;;6.35;4.10;;;11.10;83.80;;;;;;4880934;29;19920;-82
2022/11/05 10:49:42;;;;;;;7.57;4.30;;;11.10;83.40;;;;;;4883231;29;20036;-81
2022/11/05 10:52:52;;;;;;;7.38;5.00;;;11.20;83.40;;;;;;4883403;29;20049;-83
2022/11/05 10:55:29;;;;;;;10.02;4.60;;;11.20;82.90;;;;;;4883092;29;20032;-83
2022/11/05 10:58:17;;;;;;;5.25;4.32;;;11.20;82.70;;;;;;4883277;29;20095;-83
2022/11/05 11:00:50;;;;;;;10.30;5.40;;;11.30;82.80;;;;;;4883211;29;20033;-81
2022/11/05 11:03:34;;;;;;;7.95;4.75;;;11.40;82.60;;;;;;4882986;29;20033;-81
2022/11/05 11:06:13;;;;;;;7.75;4.63;;;11.40;82.30;;;;;;4882932;29;20045;-82
2022/11/05 11:08:44;;;;;;;10.65;4.65;;;11.40;82.30;;;;;;4864415;29;20105;-83
2022/11/05 11:11:12;;;;;;;7.88;4.43;;;11.40;82.30;;;;;;4864552;29;20093;-80
2022/11/05 11:13:57;;;;;;;6.55;4.40;;;11.50;82.20;;;;;;4860885;29;20048;-81
2022/11/05 11:17:00;;;;;;;;;;;;;;;;;;;;;
2022/11/05 11:27:04;;;;;;;;;;;;;;;;;;;;;
2022/11/05 11:29:40;;;;;;;8.02;4.65;;;11.70;81.60;;;;;;4861752;29;20540;-82
2022/11/05 11:32:14;;;;;;;8.88;4.43;;;11.80;81.60;;;;;;4844845;29;20382;-82
2022/11/05 11:34:44;;;;;;;8.25;4.60;;;11.80;81.50;;;;;;4845063;29;20060;-81
2022/11/05 11:37:18;;;;;;;7.35;4.22;;;11.80;81.40;;;;;;4860350;29;20052;-82
2022/11/05 11:39:59;;;;;;;7.00;4.20;;;11.90;81.10;;;;;;4859771;29;20056;-82
2022/11/05 11:42:34;;;;;;;6.35;3.80;;;11.90;81.00;;;;;;4859787;29;20029;-82
2022/11/05 11:45:14;;;;;;;6.13;3.90;;;11.90;80.90;;;;;;4841013;29;20046;-83
2022/11/05 11:47:44;;;;;;;7.22;4.00;;;11.90;80.70;;;;;;4841224;29;20038;-82
2022/11/05 11:50:37;;;;;;;4.75;3.70;;;11.90;81.20;;;;;;4828145;29;20106;-82
2022/11/05 11:53:19;;;;;;;6.57;3.60;;;11.90;80.60;;;;;;4859530;29;20059;-81
2022/11/05 11:56:17;;;;;;;6.43;3.65;;;11.90;80.50;;;;;;4844403;29;20401;-80
2022/11/05 11:58:45;;;;;;;7.13;3.80;;;11.90;80.20;;;;;;4859716;29;20425;-82
2022/11/05 12:01:32;;;;;;;5.63;3.28;;;11.90;80.20;;;;;;4859624;29;20034;-82
2022/11/05 12:03:57;;;;;;;5.15;3.55;;;11.90;80.20;;;;;;4845210;29;20037;-81
2022/11/05 12:06:37;;;;;;;5.80;3.97;;;12.00;80.20;;;;;;4846867;29;20527;-83
2022/11/05 12:09:24;;;;;;;6.63;4.22;;;12.00;79.90;;;;;;4878660;29;20552;-80
2022/11/05 12:12:01;;;;;;;4.70;3.80;;;12.00;79.70;;;;;;4879184;29;20043;-81
2022/11/05 12:14:41;;;;;;;5.78;3.67;;;12.00;79.80;;;;;;4862689;29;20434;-79
2022/11/05 12:17:34;;;;;;;8.10;3.95;;;12.00;79.90;;;;;;4898906;29;20066;-80
2022/11/05 12:20:21;;;;;;;6.57;3.40;;;12.00;79.80;;;;;;4881940;29;20592;-81
2022/11/05 12:22:55;;;;;;;5.75;3.42;;;12.00;79.70;;;;;;4882340;29;20037;-79
2022/11/05 12:25:26;;;;;;;;;;;12.00;79.80;;;;;;4883224;29;20033;-84
2022/11/05 12:28:08;;;;;;;7.47;3.95;;;12.00;79.50;;;;;;4882532;29;20375;-83
2022/11/05 12:31:19;;;;;;;7.60;3.60;;;12.00;79.70;;;;;;4881468;29;20130;-79
2022/11/05 12:33:57;;;;;;;6.93;3.65;;;12.00;79.70;;;;;;4872265;29;20047;-82
2022/11/05 12:36:47;;;;;;;6.13;3.60;;;11.90;79.60;;;;;;4881470;29;20029;-80
2022/11/05 12:39:51;;;;;;;5.63;3.42;;;11.90;79.60;;;;;;4898228;29;20063;-81
2022/11/05 12:42:46;;;;;;;6.50;3.47;;;12.00;79.50;;;;;;4881477;29;20089;-80
2022/11/05 12:45:34;;;;;;;5.30;3.13;;;12.00;79.50;;;;;;4897564;29;20173;-83
2022/11/05 12:48:16;;;;;;;5.50;3.13;;;12.00;79.50;;;;;;4882166;29;20374;-83
2022/11/05 12:50:52;;;;;;;4.93;3.17;;;12.10;79.50;;;;;;4898457;29;20548;-82
2022/11/05 12:53:48;;;;;;;7.22;3.72;;;12.10;79.50;;;;;;4877747;29;20124;-83
2022/11/05 12:56:20;;;;;;;6.70;3.40;;;12.20;79.20;;;;;;4882174;29;20032;-83
2022/11/05 12:58:53;;;;;;;5.82;3.45;;;12.10;79.10;;;;;;4879847;29;20073;-83
2022/11/05 13:01:37;;;;;;;6.10;3.78;;;12.20;79.10;;;;;;4881690;29;20511;-83
2022/11/05 13:04:23;;;;;;;7.50;3.95;;;12.20;79.10;;;;;;4881054;29;20080;-82
2022/11/05 13:06:53;;;;;;;5.35;3.58;;;12.20;79.10;;;;;;4880904;29;20500;-82
2022/11/05 13:09:49;;;;;;;5.82;3.50;;;12.20;79.00;;;;;;4881067;29;20119;-83
2022/11/05 13:12:19;;;;;;;7.00;4.38;;;12.20;79.10;;;;;;4859863;29;20449;-81
2022/11/05 13:15:27;;;;;;;6.35;3.97;;;12.20;79.00;;;;;;4881328;29;20029;-82
2022/11/05 13:17:58;;;;;;;6.65;3.72;;;12.20;79.00;;;;;;4881356;29;20115;-85
2022/11/05 13:20:28;;;;;;;6.93;3.58;;;12.20;79.00;;;;;;4878866;29;20068;-84
2022/11/05 13:23:06;;;;;;;5.65;3.67;;;12.30;78.90;;;;;;4897838;29;20035;-85
2022/11/05 13:25:38;;;;;;;4.88;3.72;;;12.30;78.90;;;;;;4881536;29;20029;-83
2022/11/05 13:28:14;;;;;;;5.80;3.63;;;12.30;78.80;;;;;;4881645;29;20493;-84
2022/11/05 13:30:47;;;;;;;4.88;3.50;;;12.30;78.80;;;;;;4897406;29;20145;-83
2022/11/05 13:33:21;;;;;;;4.80;3.45;;;12.30;78.80;;;;;;4880480;29;20088;-81
2022/11/05 13:39:31;;;;;;;5.85;4.00;;;12.30;78.70;;;;;;4897505;29;20042;-82
2022/11/05 13:42:25;;;;;;;12.30;4.25;;;12.30;78.50;;;;;;4879478;29;20048;-83
2022/11/05 13:45:18;;;;;;;7.57;3.72;;;12.30;78.60;;;;;;4881615;29;20029;-82
2022/11/05 13:48:13;;;;;;;4.55;3.70;;;12.30;78.70;;;;;;4863201;29;20075;-82
2022/11/05 13:51:18;;;;;;;5.30;3.40;;;12.30;78.70;;;;;;4880526;29;20413;-82
2022/11/05 13:54:19;;;;;;;8.93;4.00;;;12.30;78.70;;;;;;4897222;29;20470;-82
2022/11/05 13:57:18;;;;;;;7.32;4.15;;;12.30;78.80;;;;;;4880692;29;20616;-82
2022/11/05 13:59:55;;;;;;;7.85;4.07;;;12.30;78.80;;;;;;4880371;29;20087;-81
2022/11/05 14:02:35;;;;;;;4.80;3.83;;;12.30;78.80;;;;;;4880805;29;20041;-81
2022/11/05 14:05:03;;;;;;;9.25;4.80;;;12.30;78.70;;;;;;4883771;29;20032;-83
2022/11/05 14:07:37;;;;;;;7.82;4.18;;;12.30;78.70;;;;;;4901741;29;20045;-82
2022/11/05 14:10:30;;;;;;;6.05;3.72;;;12.40;78.80;;;;;;4884849;29;20024;-81
2022/11/05 14:13:00;;;;;;;9.55;4.28;;;12.40;78.80;;;;;;4901167;29;20088;-82
2022/11/05 14:15:29;;;;;;;6.25;4.20;;;12.40;78.80;;;;;;4882082;29;20416;-82
2022/11/05 14:17:54;;;;;;;7.18;4.35;;;12.40;78.70;;;;;;4884304;29;20059;-82